createdAt,value
2023-04-21T00:01:59.022Z,7.72
2023-04-21T00:04:26.191Z,7.98
2023-04-21T00:06:53.384Z,8.29
2023-04-21T00:09:20.920Z,8.08
2023-04-21T00:11:47.877Z,7.91
2023-04-21T00:14:14.805Z,7.96
2023-04-21T00:16:41.594Z,8.40
2023-04-21T00:19:08.697Z,8.29
2023-04-21T00:21:35.779Z,7.97
2023-04-21T00:24:02.600Z,8.13
2023-04-21T00:26:29.356Z,8.31
2023-04-21T00:28:56.243Z,8.25
2023-04-21T00:31:23.031Z,8.12
2023-04-21T00:33:49.803Z,8.28
2023-04-21T00:36:16.598Z,8.16
2023-04-21T00:38:43.348Z,8.14
2023-04-21T00:41:10.157Z,8.30
2023-04-21T00:43:36.920Z,8.07
2023-04-21T00:46:03.737Z,8.24
2023-04-21T00:48:30.791Z,8.20
2023-04-21T00:50:57.524Z,7.97
2023-04-21T00:53:24.366Z,7.75
2023-04-21T00:55:51.673Z,7.59
2023-04-21T00:58:18.446Z,7.72
2023-04-21T01:00:45.652Z,7.50
2023-04-21T01:03:12.634Z,7.50
2023-04-21T01:05:39.876Z,7.89
2023-04-21T01:08:07.191Z,7.24
2023-04-21T01:10:33.955Z,7.48
2023-04-21T01:13:00.705Z,7.70
2023-04-21T01:15:31.113Z,7.08
2023-04-21T01:17:58.456Z,7.70
2023-04-21T01:20:25.295Z,7.62
2023-04-21T01:22:52.184Z,7.68
2023-04-21T01:25:19.954Z,7.72
2023-04-21T01:27:46.896Z,7.49
2023-04-21T01:30:13.668Z,7.80
2023-04-21T01:32:40.629Z,7.75
2023-04-21T01:35:07.753Z,8.10
2023-04-21T01:37:35.081Z,7.84
2023-04-21T01:40:05.549Z,7.86
2023-04-21T01:42:33.720Z,8.27
2023-04-21T01:45:00.990Z,7.77
2023-04-21T01:47:27.871Z,7.92
2023-04-21T01:49:54.711Z,7.66
2023-04-21T01:52:21.837Z,7.53
2023-04-21T01:54:48.739Z,7.56
2023-04-21T01:57:16.052Z,7.48
2023-04-21T01:59:43.734Z,7.76
2023-04-21T02:02:10.676Z,7.50
2023-04-21T02:04:37.671Z,7.67
2023-04-21T02:07:04.502Z,7.45
2023-04-21T02:09:31.998Z,7.19
2023-04-21T02:11:58.828Z,7.48
2023-04-21T02:14:26.323Z,7.07
2023-04-21T02:16:53.443Z,7.22
2023-04-21T02:19:20.685Z,7.15
2023-04-21T02:21:47.817Z,6.76
2023-04-21T02:24:14.575Z,6.76
2023-04-21T02:26:41.341Z,7.21
2023-04-21T02:29:08.098Z,6.86
2023-04-21T02:31:43.092Z,7.08
2023-04-21T02:34:16.851Z,7.01
2023-04-21T02:36:43.762Z,7.13
2023-04-21T02:39:10.639Z,6.79
2023-04-21T02:41:37.453Z,6.49
2023-04-21T02:44:04.404Z,6.94
2023-04-21T02:46:31.247Z,7.12
2023-04-21T02:48:58.042Z,6.60
2023-04-21T02:51:24.881Z,6.71
2023-04-21T02:53:51.654Z,6.91
2023-04-21T02:56:18.458Z,7.02
2023-04-21T02:58:46.003Z,6.73
2023-04-21T03:01:12.821Z,6.83
2023-04-21T03:03:39.636Z,6.55
2023-04-21T03:06:06.836Z,6.81
2023-04-21T03:08:33.627Z,6.54
2023-04-21T03:11:00.995Z,6.51
2023-04-21T03:13:27.785Z,6.60
2023-04-21T03:15:54.517Z,6.63
2023-04-21T03:18:21.310Z,6.38
2023-04-21T03:20:48.124Z,6.17
2023-04-21T03:23:14.889Z,6.07
2023-04-21T03:25:41.757Z,6.54
2023-04-21T03:28:08.700Z,6.39
2023-04-21T03:30:35.525Z,6.44
2023-04-21T03:33:02.395Z,6.26
2023-04-21T03:35:29.252Z,6.68
2023-04-21T03:37:56.013Z,6.15
2023-04-21T03:40:23.174Z,6.45
2023-04-21T03:42:49.962Z,6.63
2023-04-21T03:45:16.770Z,6.07
2023-04-21T03:47:43.544Z,6.14
2023-04-21T03:50:10.333Z,5.87
2023-04-21T03:52:37.233Z,6.33
2023-04-21T03:55:05.220Z,6.52
2023-04-21T03:57:31.956Z,6.07
2023-04-21T03:59:58.681Z,6.04
2023-04-21T04:02:26.039Z,5.99
2023-04-21T04:04:53.136Z,6.22
2023-04-21T04:07:19.962Z,6.27
2023-04-21T04:09:46.686Z,5.95
2023-04-21T04:12:13.456Z,6.31
2023-04-21T04:14:40.201Z,5.87
2023-04-21T04:17:06.934Z,5.77
2023-04-21T04:19:33.964Z,6.06
2023-04-21T04:22:01.380Z,5.85
2023-04-21T04:24:28.611Z,6.20
2023-04-21T04:26:55.611Z,5.61
2023-04-21T04:29:22.844Z,5.86
2023-04-21T04:31:51.169Z,5.85
2023-04-21T04:34:18.119Z,5.59
2023-04-21T04:36:45.848Z,5.50
2023-04-21T04:39:12.577Z,5.83
2023-04-21T04:41:39.473Z,5.75
2023-04-21T04:44:06.409Z,5.79
2023-04-21T04:46:33.206Z,5.87
2023-04-21T04:49:03.364Z,5.70
2023-04-21T04:51:30.357Z,5.74
2023-04-21T04:53:57.093Z,5.55
2023-04-21T04:56:23.971Z,5.46
2023-04-21T04:58:50.869Z,5.75
2023-04-21T05:01:18.101Z,5.66
2023-04-21T05:03:46.903Z,6.06
2023-04-21T05:06:14.473Z,5.90
2023-04-21T05:08:43.939Z,5.82
2023-04-21T05:11:10.854Z,5.61
2023-04-21T05:13:39.803Z,5.76
2023-04-21T05:16:08.020Z,5.76
2023-04-21T05:18:34.777Z,5.52
2023-04-21T05:21:01.484Z,5.99
2023-04-21T05:23:28.452Z,6.03
2023-04-21T05:25:55.192Z,5.84
2023-04-21T05:28:23.299Z,5.98
2023-04-21T05:30:50.115Z,5.90
2023-04-21T05:33:19.697Z,5.69
2023-04-21T05:35:46.520Z,5.59
2023-04-21T05:38:13.295Z,5.54
2023-04-21T05:40:40.119Z,5.85
2023-04-21T05:43:08.475Z,5.84
2023-04-21T05:45:39.919Z,5.74
2023-04-21T05:48:06.897Z,5.98
2023-04-21T05:50:35.711Z,5.71
2023-04-21T05:53:02.697Z,5.87
2023-04-21T05:55:29.534Z,6.24
2023-04-21T05:57:56.548Z,6.17
2023-04-21T06:00:23.285Z,5.83
2023-04-21T06:02:50.121Z,5.99
2023-04-21T06:05:17.130Z,6.34
2023-04-21T06:07:44.162Z,6.09
2023-04-21T06:10:12.078Z,6.26
2023-04-21T06:12:39.131Z,6.06
2023-04-21T06:15:06.665Z,5.93
2023-04-21T06:17:33.442Z,5.75
2023-04-21T06:20:00.314Z,5.64
2023-04-21T06:22:28.388Z,5.87
2023-04-21T06:24:55.164Z,5.75
2023-04-21T06:27:21.877Z,6.34
2023-04-21T06:29:48.568Z,6.36
2023-04-21T06:32:15.329Z,6.50
2023-04-21T06:34:42.060Z,7.58
2023-04-21T06:37:08.704Z,8.57
2023-04-21T06:39:35.427Z,9.26
2023-04-21T06:42:02.519Z,9.91
2023-04-21T06:44:29.934Z,10.27
2023-04-21T06:46:56.689Z,10.66
2023-04-21T06:49:23.445Z,11.14
2023-04-21T06:51:50.173Z,11.45
2023-04-21T06:54:17.085Z,11.72
2023-04-21T06:56:43.799Z,11.11
2023-04-21T06:59:10.530Z,10.90
2023-04-21T07:01:37.411Z,11.10
2023-04-21T07:04:06.318Z,10.85
2023-04-21T07:06:34.697Z,11.08
2023-04-21T07:09:01.557Z,11.40
2023-04-21T07:11:28.791Z,11.69
2023-04-21T07:13:55.896Z,12.14
2023-04-21T07:16:22.772Z,12.63
2023-04-21T07:18:49.541Z,12.84
2023-04-21T07:21:16.280Z,12.90
2023-04-21T07:23:43.004Z,12.83
2023-04-21T07:26:09.792Z,13.04
2023-04-21T07:28:37.449Z,13.54
2023-04-21T07:31:04.709Z,13.85
2023-04-21T07:33:31.443Z,13.67
2023-04-21T07:35:58.203Z,14.05
2023-04-21T07:38:25.155Z,13.85
2023-04-21T07:40:52.072Z,13.89
2023-04-21T07:43:19.956Z,13.66
2023-04-21T07:45:46.766Z,14.07
2023-04-21T07:48:13.670Z,13.73
2023-04-21T07:50:41.441Z,13.78
2023-04-21T07:53:08.155Z,14.08
2023-04-21T07:55:37.212Z,14.04
2023-04-21T07:58:06.850Z,14.13
2023-04-21T08:00:33.683Z,14.15
2023-04-21T08:03:00.544Z,13.68
2023-04-21T08:05:31.406Z,13.74
2023-04-21T08:08:00.276Z,13.74
2023-04-21T08:10:27.015Z,14.34
2023-04-21T08:12:53.718Z,14.39
2023-04-21T08:15:20.593Z,13.95
2023-04-21T08:17:47.384Z,14.23
2023-04-21T08:20:14.177Z,14.12
2023-04-21T08:22:41.267Z,14.65
2023-04-21T08:25:08.751Z,14.35
2023-04-21T08:27:38.293Z,14.69
2023-04-21T08:30:06.128Z,14.36
2023-04-21T08:32:32.911Z,14.57
2023-04-21T08:34:59.648Z,14.34
2023-04-21T08:37:26.378Z,14.35
2023-04-21T08:39:54.696Z,14.43
2023-04-21T08:42:21.574Z,14.88
2023-04-21T08:44:48.366Z,15.00
2023-04-21T08:47:16.238Z,14.95
2023-04-21T08:49:45.387Z,14.77
2023-04-21T08:52:14.484Z,14.59
2023-04-21T08:54:41.421Z,14.76
2023-04-21T08:57:15.258Z,14.64
2023-04-21T08:59:43.167Z,14.52
2023-04-21T09:02:15.187Z,15.13
2023-04-21T09:04:44.174Z,15.22
2023-04-21T09:07:11.445Z,14.90
2023-04-21T09:09:52.831Z,13.93
2023-04-21T09:12:19.958Z,14.44
2023-04-21T09:14:46.969Z,14.64
2023-04-21T09:17:16.598Z,14.47
2023-04-21T09:19:43.822Z,14.78
2023-04-21T09:22:15.658Z,14.93
2023-04-21T09:24:49.637Z,14.34
2023-04-21T09:27:19.184Z,15.06
2023-04-21T09:29:48.322Z,15.49
2023-04-21T09:32:19.759Z,15.01
2023-04-21T09:34:47.130Z,14.84
2023-04-21T09:37:17.406Z,14.86
2023-04-21T09:40:03.288Z,15.33
2023-04-21T09:42:38.977Z,15.31
2023-04-21T09:45:32.479Z,15.64
2023-04-21T09:47:59.616Z,15.83
2023-04-21T09:50:54.812Z,15.34
2023-04-21T09:53:17.857Z,15.00
2023-04-21T09:55:49.435Z,14.52
2023-04-21T09:58:20.399Z,15.19
2023-04-21T10:00:47.930Z,15.70
2023-04-21T10:03:17.299Z,15.36
2023-04-21T10:05:44.279Z,15.03
2023-04-21T10:08:12.702Z,14.99
2023-04-21T10:10:40.019Z,14.85
2023-04-21T10:13:07.570Z,15.11
2023-04-21T10:15:42.013Z,15.41
2023-04-21T10:18:13.426Z,15.14
2023-04-21T10:21:03.978Z,15.67
2023-04-21T10:23:36.178Z,15.67
2023-04-21T10:26:14.210Z,15.65
2023-04-21T10:28:45.737Z,15.91
2023-04-21T10:31:23.241Z,15.83
2023-04-21T10:34:14.169Z,15.73
2023-04-21T10:36:47.048Z,15.68
2023-04-21T10:39:33.634Z,15.68
2023-04-21T10:42:12.600Z,15.62
2023-04-21T10:44:53.063Z,15.69
2023-04-21T10:47:41.296Z,15.63
2023-04-21T10:50:31.885Z,15.35
2023-04-21T10:53:10.155Z,15.02
2023-04-21T10:55:37.426Z,15.33
2023-04-21T10:58:06.606Z,15.93
2023-04-21T11:00:33.580Z,15.85
2023-04-21T11:03:03.090Z,15.15
2023-04-21T11:05:41.439Z,15.47
2023-04-21T11:08:11.478Z,15.56
2023-04-21T11:10:53.376Z,15.34
2023-04-21T11:13:35.035Z,15.34
2023-04-21T11:16:08.487Z,15.65
2023-04-21T11:18:43.822Z,16.20
2023-04-21T11:21:20.247Z,15.61
2023-04-21T11:23:55.211Z,15.85
2023-04-21T11:26:38.357Z,16.03
2023-04-21T11:29:07.558Z,16.37
2023-04-21T11:31:35.424Z,16.32
2023-04-21T11:34:05.464Z,16.43
2023-04-21T11:36:41.784Z,16.63
2023-04-21T11:39:10.726Z,16.65
2023-04-21T11:41:41.799Z,16.49
2023-04-21T11:44:12.214Z,16.09
2023-04-21T11:46:46.747Z,16.33
2023-04-21T11:49:17.208Z,16.81
2023-04-21T11:51:44.827Z,16.39
2023-04-21T11:54:13.337Z,15.99
2023-04-21T11:56:46.623Z,15.98
2023-04-21T11:59:15.982Z,15.58
2023-04-21T12:01:47.369Z,15.86
2023-04-21T12:04:17.297Z,15.96
2023-04-21T12:06:46.333Z,16.42
2023-04-21T12:09:20.867Z,16.25
2023-04-21T12:11:50.117Z,16.23
2023-04-21T12:14:18.495Z,16.08
2023-04-21T12:16:55.396Z,16.21
2023-04-21T12:19:24.601Z,15.95
2023-04-21T12:21:56.607Z,16.40
2023-04-21T12:24:23.430Z,15.83
2023-04-21T12:26:50.210Z,16.13
2023-04-21T12:29:17.040Z,15.97
2023-04-21T12:31:43.860Z,15.72
2023-04-21T12:34:10.643Z,16.01
2023-04-21T12:36:38.724Z,15.89
2023-04-21T12:39:06.306Z,16.01
2023-04-21T12:41:34.739Z,15.90
2023-04-21T12:44:01.728Z,16.35
2023-04-21T12:46:28.826Z,15.85
2023-04-21T12:48:56.204Z,16.10
2023-04-21T12:51:22.976Z,15.61
2023-04-21T12:53:50.090Z,15.98
2023-04-21T12:56:16.882Z,15.93
2023-04-21T12:58:43.595Z,16.13
2023-04-21T13:01:12.368Z,16.20
2023-04-21T13:03:39.907Z,16.36
2023-04-21T13:06:07.075Z,16.04
2023-04-21T13:08:33.962Z,16.24
2023-04-21T13:11:01.249Z,16.20
2023-04-21T13:13:27.995Z,16.54
2023-04-21T13:15:54.749Z,16.75
2023-04-21T13:18:21.469Z,16.28
2023-04-21T13:20:48.259Z,16.55
2023-04-21T13:23:16.235Z,16.36
2023-04-21T13:25:44.963Z,16.19
2023-04-21T13:28:14.033Z,16.54
2023-04-21T13:30:40.862Z,16.41
2023-04-21T13:33:07.768Z,16.16
2023-04-21T13:35:34.554Z,15.75
2023-04-21T13:38:01.259Z,16.04
2023-04-21T13:40:28.352Z,15.87
2023-04-21T13:42:55.079Z,15.99
2023-04-21T13:45:22.088Z,15.88
2023-04-21T13:47:48.834Z,15.71
2023-04-21T13:50:15.695Z,15.66
2023-04-21T13:52:42.391Z,15.38
2023-04-21T13:55:09.461Z,15.16
2023-04-21T13:57:36.378Z,15.00
2023-04-21T14:00:06.678Z,15.43
2023-04-21T14:02:33.606Z,15.68
2023-04-21T14:05:01.084Z,15.62
2023-04-21T14:07:28.093Z,15.41
2023-04-21T14:09:54.888Z,15.52
2023-04-21T14:12:21.727Z,15.25
2023-04-21T14:14:48.551Z,15.36
2023-04-21T14:17:17.499Z,15.01
2023-04-21T14:19:44.458Z,15.14
2023-04-21T14:22:11.271Z,14.70
2023-04-21T14:24:38.080Z,14.39
2023-04-21T14:27:05.447Z,14.75
2023-04-21T14:29:32.775Z,14.63
2023-04-21T14:31:59.954Z,15.12
2023-04-21T14:34:26.851Z,15.12
2023-04-21T14:36:54.328Z,14.84
2023-04-21T14:39:21.300Z,14.83
2023-04-21T14:41:48.390Z,14.96
2023-04-21T14:44:16.038Z,14.79
2023-04-21T14:46:48.076Z,14.69
2023-04-21T14:49:21.895Z,14.78
2023-04-21T14:51:50.240Z,14.67
2023-04-21T14:54:17.010Z,14.60
2023-04-21T14:56:44.068Z,14.58
2023-04-21T14:59:11.107Z,13.92
2023-04-21T15:01:38.706Z,14.42
2023-04-21T15:04:07.156Z,13.67
2023-04-21T15:06:34.272Z,13.95
2023-04-21T15:09:01.174Z,13.82
2023-04-21T15:11:28.176Z,14.31
2023-04-21T15:13:55.253Z,13.64
2023-04-21T15:16:22.394Z,13.90
2023-04-21T15:18:49.886Z,13.63
2023-04-21T15:21:16.683Z,13.74
2023-04-21T15:26:30.793Z,13.62
2023-04-21T15:28:58.052Z,13.67
2023-04-21T15:31:24.930Z,13.77
2023-04-21T15:33:52.352Z,13.98
2023-04-21T15:36:19.163Z,13.24
2023-04-21T15:38:46.238Z,13.07
2023-04-21T15:41:13.558Z,13.16
2023-04-21T15:43:40.536Z,13.66
2023-04-21T15:46:15.502Z,13.59
2023-04-21T15:48:42.979Z,13.44
2023-04-21T15:51:13.270Z,13.37
2023-04-21T15:53:47.808Z,12.53
2023-04-21T15:56:15.797Z,13.20
2023-04-21T15:58:44.274Z,13.73
2023-04-21T16:01:11.488Z,13.64
2023-04-21T16:03:40.697Z,13.54
2023-04-21T16:06:08.451Z,13.16
2023-04-21T16:08:35.560Z,13.37
2023-04-21T16:11:02.666Z,12.94
2023-04-21T16:13:29.750Z,13.23
2023-04-21T16:15:57.537Z,13.37
2023-04-21T16:18:24.832Z,13.42
2023-04-21T16:20:52.017Z,13.03
2023-04-21T16:23:19.425Z,13.00
2023-04-21T16:25:46.255Z,13.34
2023-04-21T16:28:13.347Z,13.44
2023-04-21T16:30:43.631Z,13.45
2023-04-21T16:33:14.686Z,13.63
2023-04-21T16:35:42.124Z,13.17
2023-04-21T16:38:10.474Z,13.09
2023-04-21T16:40:37.552Z,12.90
2023-04-21T16:43:04.491Z,13.16
2023-04-21T16:45:31.384Z,12.68
2023-04-21T16:47:58.651Z,12.48
2023-04-21T16:50:25.730Z,12.84
2023-04-21T16:52:52.496Z,13.07
2023-04-21T16:55:19.417Z,12.54
2023-04-21T16:57:46.517Z,12.68
2023-04-21T17:00:14.190Z,13.09
2023-04-21T17:02:41.012Z,13.41
2023-04-21T17:05:08.394Z,13.49
2023-04-21T17:07:35.445Z,12.93
2023-04-21T17:10:02.323Z,13.23
2023-04-21T17:12:29.149Z,13.08
2023-04-21T17:14:55.992Z,13.07
2023-04-21T17:17:22.992Z,12.98
2023-04-21T17:19:49.725Z,13.37
2023-04-21T17:22:16.667Z,13.18
2023-04-21T17:24:52.552Z,13.10
2023-04-21T17:27:21.423Z,13.25
2023-04-21T17:29:48.372Z,13.30
2023-04-21T17:32:15.329Z,12.70
2023-04-21T17:34:42.101Z,12.48
2023-04-21T17:37:09.180Z,12.32
2023-04-21T17:39:36.027Z,12.36
2023-04-21T17:42:03.003Z,12.23
2023-04-21T17:44:31.074Z,12.56
2023-04-21T17:47:01.506Z,12.49
2023-04-21T17:49:28.299Z,12.57
2023-04-21T17:51:54.988Z,12.77
2023-04-21T17:54:24.451Z,12.53
2023-04-21T17:56:51.250Z,12.19
2023-04-21T17:59:17.973Z,11.92
2023-04-21T18:01:44.668Z,11.66
2023-04-21T18:04:12.096Z,11.98
2023-04-21T18:06:39.177Z,12.39
2023-04-21T18:09:06.202Z,11.98
2023-04-21T18:11:32.983Z,11.85
2023-04-21T18:13:59.981Z,11.65
2023-04-21T18:16:26.770Z,11.67
2023-04-21T18:18:56.886Z,11.46
2023-04-21T18:21:23.596Z,11.39
2023-04-21T18:23:50.320Z,11.23
2023-04-21T18:26:17.102Z,11.57
2023-04-21T18:28:43.879Z,11.47
2023-04-21T18:31:11.110Z,11.37
2023-04-21T18:33:38.284Z,11.18
2023-04-21T18:36:05.898Z,10.75
2023-04-21T18:38:32.552Z,11.08
2023-04-21T18:40:59.280Z,10.97
2023-04-21T18:43:26.107Z,10.87
2023-04-21T18:45:53.003Z,11.07
2023-04-21T18:48:19.729Z,11.24
2023-04-21T18:50:46.975Z,11.07
2023-04-21T18:53:13.669Z,11.30
2023-04-21T18:55:40.620Z,11.18
2023-04-21T18:58:07.409Z,11.12
2023-04-21T19:00:37.560Z,10.68
2023-04-21T19:03:08.857Z,10.40
2023-04-21T19:05:36.837Z,10.50
2023-04-21T19:08:03.557Z,10.48
2023-04-21T19:10:30.321Z,10.60
2023-04-21T19:12:57.168Z,10.59
2023-04-21T19:15:23.984Z,10.55
2023-04-21T19:17:50.849Z,10.57
2023-04-21T19:20:18.499Z,10.31
2023-04-21T19:22:45.266Z,10.14
2023-04-21T19:25:12.504Z,10.24
2023-04-21T19:27:40.971Z,10.16
2023-04-21T19:30:08.821Z,10.60
2023-04-21T19:32:35.803Z,10.30
2023-04-21T19:35:02.582Z,10.24
2023-04-21T19:37:29.427Z,10.06
2023-04-21T19:39:56.336Z,10.13
2023-04-21T19:42:23.051Z,10.48
2023-04-21T19:44:49.704Z,10.50
2023-04-21T19:47:16.757Z,10.26
2023-04-21T19:49:43.500Z,10.34
2023-04-21T19:52:10.144Z,10.38
2023-04-21T19:54:37.115Z,10.10
2023-04-21T19:57:04.059Z,10.27
2023-04-21T19:59:31.085Z,9.94
2023-04-21T20:01:58.675Z,10.13
2023-04-21T20:04:25.656Z,10.06
2023-04-21T20:06:52.993Z,10.19
2023-04-21T20:09:19.855Z,9.78
2023-04-21T20:11:46.580Z,9.96
2023-04-21T20:14:13.346Z,10.13
2023-04-21T20:16:41.303Z,9.71
2023-04-21T20:19:09.055Z,9.98
2023-04-21T20:21:35.774Z,9.99
2023-04-21T20:24:02.593Z,9.77
2023-04-21T20:26:29.488Z,9.69
2023-04-21T20:28:56.232Z,9.37
2023-04-21T20:31:25.551Z,9.28
2023-04-21T20:33:52.650Z,9.52
2023-04-21T20:36:19.534Z,9.67
2023-04-21T20:38:46.655Z,9.56
2023-04-21T20:41:13.611Z,9.28
2023-04-21T20:43:40.533Z,9.20
2023-04-21T20:46:08.952Z,9.28
2023-04-21T20:48:36.008Z,9.27
2023-04-21T20:51:02.885Z,9.39
2023-04-21T20:53:29.584Z,9.02
2023-04-21T20:55:57.382Z,9.40
2023-04-21T20:58:25.134Z,9.08
2023-04-21T21:00:51.995Z,9.63
2023-04-21T21:03:20.337Z,9.25
2023-04-21T21:05:47.634Z,9.62
2023-04-21T21:08:15.299Z,9.76
2023-04-21T21:10:42.175Z,9.63
2023-04-21T21:13:08.899Z,9.58
2023-04-21T21:15:35.949Z,9.54
2023-04-21T21:18:03.381Z,9.64
2023-04-21T21:20:30.135Z,9.56
2023-04-21T21:22:56.895Z,9.76
2023-04-21T21:25:23.661Z,9.46
2023-04-21T21:27:50.353Z,9.82
2023-04-21T21:30:17.164Z,9.40
2023-04-21T21:32:44.008Z,9.55
2023-04-21T21:35:12.064Z,9.43
2023-04-21T21:37:39.300Z,9.53
2023-04-21T21:40:07.231Z,9.58
2023-04-21T21:42:34.057Z,9.72
2023-04-21T21:45:01.115Z,9.25
2023-04-21T21:47:28.141Z,9.10
2023-04-21T21:49:56.109Z,9.45
2023-04-21T21:52:23.005Z,9.07
2023-04-21T21:54:49.839Z,8.78
2023-04-21T21:57:16.994Z,8.68
2023-04-21T21:59:44.129Z,8.53
2023-04-21T22:02:10.915Z,8.64
2023-04-21T22:04:37.986Z,8.57
2023-04-21T22:07:05.287Z,8.98
2023-04-21T22:09:32.166Z,8.79
2023-04-21T22:11:59.121Z,9.04
2023-04-21T22:14:25.960Z,8.54
2023-04-21T22:16:53.356Z,8.79
2023-04-21T22:19:20.538Z,8.91
2023-04-21T22:21:47.483Z,9.21
2023-04-21T22:24:14.532Z,9.04
2023-04-21T22:26:42.066Z,9.01
2023-04-21T22:29:08.772Z,8.63
2023-04-21T22:31:35.646Z,8.50
2023-04-21T22:34:02.650Z,8.82
2023-04-21T22:36:29.702Z,8.35
2023-04-21T22:38:56.407Z,8.42
2023-04-21T22:41:23.465Z,8.97
2023-04-21T22:43:50.210Z,8.48
2023-04-21T22:46:16.985Z,8.54
2023-04-21T22:48:46.646Z,8.62
2023-04-21T22:51:18.409Z,8.88
2023-04-21T22:53:45.126Z,8.57
2023-04-21T22:56:11.842Z,8.60
2023-04-21T22:58:38.638Z,8.74
2023-04-21T23:01:05.503Z,8.04
2023-04-21T23:03:32.423Z,7.87
2023-04-21T23:05:59.317Z,7.80
2023-04-21T23:08:26.389Z,7.91
2023-04-21T23:10:53.106Z,7.62
2023-04-21T23:13:19.802Z,8.10
2023-04-21T23:15:46.554Z,7.79
2023-04-21T23:18:13.281Z,7.46
2023-04-21T23:20:40.007Z,7.94
2023-04-21T23:23:06.952Z,7.77
2023-04-21T23:25:33.615Z,7.49
2023-04-21T23:28:00.385Z,7.56
2023-04-21T23:30:27.166Z,7.94
2023-04-21T23:32:53.979Z,7.61
2023-04-21T23:35:21.024Z,7.45
2023-04-21T23:37:48.798Z,7.84
2023-04-21T23:40:15.547Z,7.60
2023-04-21T23:42:42.258Z,7.50
2023-04-21T23:45:14.489Z,7.61
2023-04-21T23:47:41.222Z,7.66
2023-04-21T23:50:08.329Z,7.61
2023-04-21T23:52:35.112Z,7.56
2023-04-21T23:55:02.060Z,7.72
2023-04-21T23:57:28.929Z,7.46
2023-04-21T23:59:55.621Z,7.58
